Time;durP1;ratioP1;P1;durP2;ratioP2;P2;SDS_P1;SDS_P2;PMS_P1;PMS_P2;Temp;Humidity;BMP_temperature;BMP_pressure;BME280_temperature;BME280_humidity;BME280_pressure;Samples;Min_cycle;Max_cycle;Signal;HPM_P1;HPM_P2
2023/08/18 00:00:11;;;;;;;3.90;2.63;;;16.90;99.90;;;;;;5055815;28;20465;-60
2023/08/18 00:02:40;;;;;;;2.33;2.13;;;16.90;99.90;;;;;;5051021;28;20489;-60
2023/08/18 00:05:09;;;;;;;4.03;2.40;;;17.00;99.90;;;;;;5062952;28;20897;-60
2023/08/18 00:07:37;;;;;;;3.50;2.10;;;16.90;99.90;;;;;;5060250;28;20494;-59
2023/08/18 00:10:05;;;;;;;4.77;2.50;;;16.90;99.90;;;;;;5058122;28;20574;-59
2023/08/18 00:12:33;;;;;;;2.50;2.00;;;16.90;99.90;;;;;;5055388;28;21072;-60
2023/08/18 00:15:02;;;;;;;2.30;1.90;;;16.90;99.90;;;;;;5056392;28;20482;-60
2023/08/18 00:17:31;;;;;;;2.63;2.20;;;16.90;99.90;;;;;;5058871;28;20518;-60
2023/08/18 00:19:59;;;;;;;2.53;2.33;;;16.90;99.90;;;;;;5057852;28;20466;-60
2023/08/18 00:22:28;;;;;;;2.20;2.00;;;16.90;99.90;;;;;;5059273;28;20493;-59
2023/08/18 00:24:57;;;;;;;2.20;2.00;;;16.90;99.90;;;;;;5056241;28;20481;-59
2023/08/18 00:27:25;;;;;;;2.93;2.20;;;16.90;99.90;;;;;;5058051;28;20468;-60
2023/08/18 00:29:53;;;;;;;2.40;2.20;;;16.90;99.90;;;;;;5054739;28;20516;-60
2023/08/18 00:32:21;;;;;;;2.40;2.20;;;16.90;99.90;;;;;;5058135;28;20488;-60
2023/08/18 00:34:50;;;;;;;3.10;2.30;;;16.90;99.90;;;;;;5054889;28;21101;-60
2023/08/18 00:37:18;;;;;;;2.43;2.23;;;16.90;99.90;;;;;;5057315;28;20765;-59
2023/08/18 00:39:46;;;;;;;3.90;2.30;;;16.90;99.90;;;;;;5057636;28;20548;-59
2023/08/18 00:42:14;;;;;;;3.20;2.27;;;16.90;99.90;;;;;;5054779;28;20517;-60
2023/08/18 00:44:42;;;;;;;2.20;2.10;;;16.90;99.90;;;;;;5054996;28;20473;-60
2023/08/18 00:47:11;;;;;;;2.40;2.20;;;16.90;99.90;;;;;;5057572;28;20576;-60
2023/08/18 00:49:39;;;;;;;3.00;2.10;;;16.90;99.90;;;;;;5052414;28;20519;-58
2023/08/18 00:52:08;;;;;;;2.03;1.93;;;16.90;99.90;;;;;;5056316;28;20576;-60
2023/08/18 00:54:37;;;;;;;2.70;2.30;;;16.90;99.90;;;;;;5057300;28;20917;-58
2023/08/18 00:57:05;;;;;;;2.53;2.33;;;16.90;99.90;;;;;;5053351;28;20561;-59
2023/08/18 00:59:33;;;;;;;2.43;2.23;;;16.90;99.90;;;;;;5053220;28;20562;-61
2023/08/18 01:02:03;;;;;;;3.30;2.50;;;16.90;99.90;;;;;;5042334;28;20954;-60
2023/08/18 01:04:32;;;;;;;2.00;1.90;;;16.80;99.90;;;;;;5050907;28;20557;-58
2023/08/18 01:07:00;;;;;;;3.57;2.23;;;16.80;99.90;;;;;;5054352;28;20474;-59
2023/08/18 01:09:30;;;;;;;2.10;2.00;;;16.80;99.90;;;;;;5056057;28;20473;-60
2023/08/18 01:12:07;;;;;;;3.10;2.60;;;16.80;99.90;;;;;;5054862;28;20502;-61
2023/08/18 01:14:46;;;;;;;2.67;2.47;;;16.80;99.90;;;;;;5052509;28;20469;-58
2023/08/18 01:17:26;;;;;;;2.97;2.10;;;16.80;99.90;;;;;;5054880;28;20470;-59
2023/08/18 01:19:55;;;;;;;5.63;2.60;;;16.90;99.90;;;;;;5052347;28;20466;-60
2023/08/18 01:22:25;;;;;;;2.97;2.37;;;16.90;99.90;;;;;;5056383;28;20572;-60
2023/08/18 01:25:00;;;;;;;2.30;2.10;;;16.90;99.90;;;;;;5054681;28;20482;-60
2023/08/18 01:27:30;;;;;;;2.77;2.10;;;16.80;99.90;;;;;;5051499;28;20759;-58
2023/08/18 01:29:58;;;;;;;2.43;2.20;;;16.80;99.90;;;;;;5054071;28;20918;-60
2023/08/18 01:32:30;;;;;;;4.90;2.57;;;16.90;99.90;;;;;;5054653;28;20497;-61
2023/08/18 01:35:00;;;;;;;2.40;2.20;;;16.90;99.90;;;;;;5052118;28;20489;-59
2023/08/18 01:37:30;;;;;;;2.40;2.20;;;16.90;99.90;;;;;;5052651;28;21111;-60
2023/08/18 01:40:00;;;;;;;2.60;2.30;;;16.90;99.90;;;;;;5053143;28;20463;-60
2023/08/18 01:42:28;;;;;;;2.57;2.37;;;16.90;99.90;;;;;;5055666;28;20497;-59
2023/08/18 01:45:01;;;;;;;2.63;2.43;;;16.90;99.90;;;;;;5055750;28;21203;-59
2023/08/18 01:47:30;;;;;;;2.80;2.50;;;16.90;99.90;;;;;;5052189;28;20461;-61
2023/08/18 01:49:58;;;;;;;3.00;2.10;;;16.90;99.90;;;;;;5052084;28;20480;-56
2023/08/18 01:52:26;;;;;;;2.87;2.67;;;16.90;99.90;;;;;;5056743;28;20498;-58
2023/08/18 01:54:54;;;;;;;3.20;2.43;;;16.90;99.90;;;;;;5051982;28;20652;-56
2023/08/18 01:57:23;;;;;;;3.37;2.40;;;16.90;99.90;;;;;;5053008;28;20564;-58
2023/08/18 01:59:51;;;;;;;2.40;2.20;;;16.90;99.90;;;;;;5051801;28;20573;-57
2023/08/18 02:02:19;;;;;;;3.00;2.50;;;16.90;99.90;;;;;;5054444;28;20527;-57
2023/08/18 02:04:47;;;;;;;4.17;2.53;;;16.90;99.90;;;;;;5056389;28;20572;-58
2023/08/18 02:07:15;;;;;;;3.00;2.57;;;16.90;99.90;;;;;;5057890;28;21323;-57
2023/08/18 02:09:43;;;;;;;5.87;3.10;;;16.90;99.90;;;;;;5055980;28;20467;-58
2023/08/18 02:12:11;;;;;;;3.53;2.47;;;16.90;99.90;;;;;;5052979;28;20525;-57
2023/08/18 02:14:41;;;;;;;2.77;2.57;;;16.90;99.90;;;;;;5055799;28;20557;-57
2023/08/18 02:17:09;;;;;;;3.20;2.37;;;16.90;99.90;;;;;;5056287;28;20557;-58
2023/08/18 02:19:37;;;;;;;3.30;3.00;;;16.90;99.90;;;;;;5057623;28;21149;-57
2023/08/18 02:22:05;;;;;;;3.90;2.83;;;16.90;99.90;;;;;;5055247;28;20563;-58
2023/08/18 02:24:33;;;;;;;3.27;2.97;;;16.90;99.90;;;;;;5054136;28;20469;-58
2023/08/18 02:27:01;;;;;;;3.13;2.90;;;16.90;99.90;;;;;;5057226;28;20501;-58
2023/08/18 02:29:28;;;;;;;3.17;2.87;;;17.00;99.90;;;;;;5058906;28;20474;-58
2023/08/18 02:31:58;;;;;;;3.97;2.80;;;17.00;99.90;;;;;;5043915;28;20485;-58
2023/08/18 02:34:26;;;;;;;3.90;2.90;;;16.90;99.90;;;;;;5053803;28;21006;-57
2023/08/18 02:36:54;;;;;;;3.47;2.83;;;16.90;99.90;;;;;;5053570;28;20469;-57
2023/08/18 02:39:22;;;;;;;3.23;2.87;;;16.90;99.90;;;;;;5053654;28;20511;-58
2023/08/18 02:41:51;;;;;;;3.00;2.80;;;16.90;99.90;;;;;;5048508;28;20555;-57
2023/08/18 02:44:20;;;;;;;4.20;3.57;;;16.80;99.90;;;;;;5050405;28;20869;-58
2023/08/18 02:46:48;;;;;;;3.53;2.87;;;16.80;99.90;;;;;;5050687;28;20531;-57
2023/08/18 02:49:18;;;;;;;3.80;3.50;;;16.80;99.90;;;;;;5050118;28;20564;-58
2023/08/18 02:51:46;;;;;;;3.73;2.70;;;16.80;99.90;;;;;;5055963;28;20573;-57
2023/08/18 02:54:14;;;;;;;3.17;2.87;;;16.80;99.90;;;;;;5053719;28;20496;-59
2023/08/18 02:56:42;;;;;;;5.63;3.30;;;16.80;99.90;;;;;;5054893;28;20486;-58
2023/08/18 02:59:10;;;;;;;4.10;3.00;;;16.80;99.90;;;;;;5052295;28;20531;-58
2023/08/18 03:01:38;;;;;;;4.93;3.20;;;16.80;99.90;;;;;;5057250;28;20462;-58
2023/08/18 03:04:06;;;;;;;3.90;3.60;;;16.80;99.90;;;;;;5053241;28;20503;-58
2023/08/18 03:06:35;;;;;;;3.27;2.97;;;16.80;99.90;;;;;;5054473;28;20512;-57
2023/08/18 03:09:04;;;;;;;3.93;3.33;;;16.80;99.90;;;;;;5052792;28;20477;-57
2023/08/18 03:11:32;;;;;;;3.50;3.20;;;16.80;99.90;;;;;;5059427;28;20478;-58
2023/08/18 03:14:00;;;;;;;4.57;3.63;;;16.70;99.90;;;;;;5055322;28;20522;-58
2023/08/18 03:16:28;;;;;;;3.27;3.07;;;16.80;99.90;;;;;;5054392;28;20521;-58
2023/08/18 03:18:56;;;;;;;3.80;3.50;;;16.70;99.90;;;;;;5056064;28;20538;-58
2023/08/18 03:21:24;;;;;;;4.23;3.00;;;16.80;99.90;;;;;;5053513;28;21057;-58
2023/08/18 03:23:53;;;;;;;3.67;3.17;;;16.80;99.90;;;;;;5053261;28;20576;-58
2023/08/18 03:26:21;;;;;;;3.43;3.13;;;16.80;99.90;;;;;;5055015;28;20513;-58
2023/08/18 03:28:51;;;;;;;4.17;3.73;;;16.80;99.90;;;;;;5056241;28;20470;-58
2023/08/18 03:31:19;;;;;;;4.70;3.70;;;16.80;99.90;;;;;;5055300;28;20484;-57
2023/08/18 03:33:47;;;;;;;4.00;3.50;;;16.80;99.90;;;;;;5053505;28;21183;-58
2023/08/18 03:36:15;;;;;;;5.63;4.03;;;16.70;99.90;;;;;;5053508;28;20497;-57
2023/08/18 03:38:43;;;;;;;3.73;3.20;;;16.70;99.90;;;;;;5050386;28;20470;-58
2023/08/18 03:41:12;;;;;;;4.13;3.70;;;16.70;99.90;;;;;;5052281;28;20483;-57
2023/08/18 03:43:40;;;;;;;4.00;3.60;;;16.70;99.90;;;;;;5051375;28;20498;-58
2023/08/18 03:46:21;;;;;;;4.30;3.87;;;16.60;99.90;;;;;;5053926;28;20925;-57
2023/08/18 03:48:49;;;;;;;5.30;4.77;;;16.60;99.90;;;;;;5057995;28;20474;-58
2023/08/18 03:51:17;;;;;;;6.07;4.10;;;16.60;99.90;;;;;;5053121;28;20556;-57
2023/08/18 03:53:45;;;;;;;4.80;4.30;;;16.60;99.90;;;;;;5051800;28;20492;-57
2023/08/18 03:56:15;;;;;;;4.67;3.90;;;16.60;99.90;;;;;;5051955;28;20485;-57
2023/08/18 03:58:43;;;;;;;4.60;4.20;;;16.60;99.90;;;;;;5055482;28;20523;-58
2023/08/18 04:01:10;;;;;;;6.10;4.13;;;16.50;99.90;;;;;;5054911;28;20577;-58
2023/08/18 04:03:41;;;;;;;8.80;4.87;;;16.50;99.90;;;;;;5058157;28;20481;-58
2023/08/18 04:06:09;;;;;;;6.53;4.43;;;16.50;99.90;;;;;;5056703;28;20481;-58
2023/08/18 04:08:41;;;;;;;4.07;3.77;;;16.50;99.90;;;;;;5054633;28;20469;-58
2023/08/18 04:11:09;;;;;;;4.87;4.43;;;16.50;99.90;;;;;;5055376;28;20498;-58
2023/08/18 04:13:38;;;;;;;6.50;4.43;;;16.40;99.90;;;;;;5055214;28;20497;-58
2023/08/18 04:16:06;;;;;;;4.60;4.20;;;16.40;99.90;;;;;;5058524;28;20919;-58
2023/08/18 04:18:34;;;;;;;5.20;4.70;;;16.40;99.90;;;;;;5057412;28;20478;-58
2023/08/18 04:21:02;;;;;;;4.90;4.50;;;16.40;99.90;;;;;;5062923;28;20462;-58
2023/08/18 04:23:31;;;;;;;5.17;4.70;;;16.50;99.90;;;;;;5058783;28;20496;-58
2023/08/18 04:26:00;;;;;;;5.73;5.23;;;16.50;99.90;;;;;;5057582;28;20474;-57
2023/08/18 04:28:29;;;;;;;8.90;5.87;;;16.50;99.90;;;;;;5053803;28;20531;-58
2023/08/18 04:30:59;;;;;;;10.03;5.20;;;16.60;99.90;;;;;;5058252;28;20978;-58
2023/08/18 04:33:27;;;;;;;7.30;6.00;;;16.60;99.90;;;;;;5057890;28;20489;-57
2023/08/18 04:35:55;;;;;;;9.43;6.20;;;16.70;99.90;;;;;;5052615;28;20492;-58
2023/08/18 04:38:23;;;;;;;9.40;6.77;;;16.70;99.90;;;;;;5052142;28;20473;-57
2023/08/18 04:40:57;;;;;;;7.00;6.30;;;16.80;99.90;;;;;;5038984;28;20539;-58
2023/08/18 04:43:27;;;;;;;8.77;6.87;;;16.80;99.90;;;;;;5040550;28;20493;-58
2023/08/18 04:45:55;;;;;;;8.80;7.00;;;16.80;99.90;;;;;;5048044;28;20531;-57
2023/08/18 04:48:24;;;;;;;9.43;6.50;;;16.80;99.90;;;;;;5046938;28;20552;-58
2023/08/18 04:50:52;;;;;;;8.90;7.17;;;16.80;99.90;;;;;;5042848;28;20480;-59
2023/08/18 04:53:20;;;;;;;7.90;7.07;;;16.90;99.90;;;;;;5053660;28;20523;-57
2023/08/18 04:55:48;;;;;;;9.07;7.57;;;16.90;99.90;;;;;;5052021;28;20487;-57
2023/08/18 04:58:17;;;;;;;10.10;7.60;;;16.90;99.90;;;;;;5048754;28;20470;-57
2023/08/18 05:00:46;;;;;;;8.30;7.50;;;16.90;99.90;;;;;;5048045;28;20883;-57
2023/08/18 05:03:14;;;;;;;8.87;7.27;;;17.00;99.90;;;;;;5047066;28;20535;-57
2023/08/18 05:05:57;;;;;;;9.60;8.07;;;17.00;99.90;;;;;;5041931;28;20491;-58
2023/08/18 05:08:26;;;;;;;10.37;8.13;;;17.00;99.90;;;;;;5051538;28;20970;-57
2023/08/18 05:10:54;;;;;;;9.80;8.90;;;17.10;99.90;;;;;;5054264;28;20474;-59
2023/08/18 05:13:22;;;;;;;8.97;8.07;;;17.10;99.90;;;;;;5049403;28;21024;-58
2023/08/18 05:15:50;;;;;;;9.47;8.30;;;17.10;99.90;;;;;;5049555;28;21206;-59
2023/08/18 05:18:18;;;;;;;11.07;9.00;;;17.10;99.90;;;;;;5051488;28;21041;-59
2023/08/18 05:20:47;;;;;;;8.80;7.93;;;17.20;99.90;;;;;;5053687;28;20469;-58
2023/08/18 05:23:17;;;;;;;9.80;8.40;;;17.20;99.90;;;;;;5055920;28;20568;-58
2023/08/18 05:25:45;;;;;;;9.57;8.57;;;17.20;99.90;;;;;;5043038;28;20485;-58
2023/08/18 05:28:14;;;;;;;8.73;7.93;;;17.20;99.90;;;;;;5050355;28;20914;-58
2023/08/18 05:30:46;;;;;;;9.70;8.70;;;17.20;99.90;;;;;;5047383;28;20473;-58
2023/08/18 05:33:15;;;;;;;10.17;8.20;;;17.30;99.90;;;;;;5049241;28;21059;-59
2023/08/18 05:35:43;;;;;;;9.67;8.77;;;17.30;99.90;;;;;;5046928;28;20492;-59
2023/08/18 05:38:13;;;;;;;9.43;8.20;;;17.30;99.90;;;;;;5042959;28;20484;-58
2023/08/18 05:40:42;;;;;;;8.67;7.90;;;17.40;99.90;;;;;;5053916;28;20553;-57
2023/08/18 05:43:11;;;;;;;10.20;9.13;;;17.40;99.90;;;;;;5053143;28;20858;-58
2023/08/18 05:45:40;;;;;;;10.57;9.33;;;17.40;99.90;;;;;;5052987;28;20587;-59
2023/08/18 05:48:08;;;;;;;10.30;9.37;;;17.50;99.90;;;;;;5051195;28;20535;-58
2023/08/18 05:50:36;;;;;;;9.90;8.90;;;17.50;99.90;;;;;;5054840;28;20572;-57
2023/08/18 05:53:05;;;;;;;10.67;9.57;;;17.50;99.90;;;;;;5054937;28;20485;-57
2023/08/18 05:55:34;;;;;;;10.03;9.00;;;17.60;99.90;;;;;;5052767;28;20594;-58
2023/08/18 05:58:03;;;;;;;10.10;9.20;;;17.60;99.90;;;;;;5054134;28;20641;-58
2023/08/18 06:00:32;;;;;;;10.53;9.50;;;17.70;99.90;;;;;;5052624;28;20470;-58
2023/08/18 06:03:00;;;;;;;10.67;9.60;;;17.70;99.90;;;;;;5054454;28;20486;-58
2023/08/18 06:05:28;;;;;;;11.83;10.57;;;17.70;99.90;;;;;;5031394;28;20876;-57
2023/08/18 06:07:57;;;;;;;11.40;10.30;;;17.70;99.90;;;;;;5044251;28;20470;-58
2023/08/18 06:10:25;;;;;;;11.27;9.60;;;17.70;99.90;;;;;;5035569;28;20611;-57
2023/08/18 06:12:54;;;;;;;10.93;9.93;;;17.70;99.90;;;;;;5041907;28;20580;-57
2023/08/18 06:15:22;;;;;;;11.40;10.13;;;17.70;99.90;;;;;;5038767;28;20573;-56
2023/08/18 06:17:51;;;;;;;11.07;9.97;;;17.70;99.90;;;;;;5043772;28;21134;-57
2023/08/18 06:20:19;;;;;;;11.70;10.50;;;17.70;99.90;;;;;;5039008;28;20557;-57
2023/08/18 06:22:47;;;;;;;10.37;8.90;;;17.80;99.90;;;;;;5041947;28;20495;-57
2023/08/18 06:25:15;;;;;;;11.13;10.00;;;17.80;99.90;;;;;;5027444;28;20497;-56
2023/08/18 06:27:43;;;;;;;10.47;9.50;;;17.80;99.90;;;;;;5044958;28;20466;-57
2023/08/18 06:30:12;;;;;;;10.60;9.50;;;17.90;99.90;;;;;;5039018;28;20468;-57
2023/08/18 06:32:40;;;;;;;11.50;10.47;;;17.90;99.90;;;;;;5035207;28;20549;-57
2023/08/18 06:35:09;;;;;;;12.20;9.90;;;17.90;99.90;;;;;;5044969;28;20489;-57
2023/08/18 06:37:37;;;;;;;10.67;9.57;;;18.00;99.90;;;;;;5042347;28;20480;-58
2023/08/18 06:40:06;;;;;;;11.20;10.10;;;18.00;99.90;;;;;;5035840;28;20469;-58
2023/08/18 06:42:34;;;;;;;12.20;11.00;;;18.00;99.90;;;;;;5035256;28;20575;-58
2023/08/18 06:45:03;;;;;;;12.20;11.10;;;18.10;99.90;;;;;;5045525;28;22450;-58
2023/08/18 06:47:32;;;;;;;13.50;11.27;;;18.10;99.90;;;;;;5041691;28;20489;-57
2023/08/18 06:50:05;;;;;;;11.40;10.30;;;18.10;99.90;;;;;;5041594;28;20478;-57
2023/08/18 06:52:34;;;;;;;11.83;10.73;;;18.10;99.90;;;;;;5046964;28;20497;-56
2023/08/18 06:55:03;;;;;;;12.27;11.07;;;18.10;99.90;;;;;;5032613;28;20510;-57
2023/08/18 06:57:32;;;;;;;11.53;10.43;;;18.10;99.90;;;;;;5032965;28;20612;-57
2023/08/18 07:00:00;;;;;;;11.83;10.60;;;18.10;99.90;;;;;;5049779;28;20545;-56
2023/08/18 07:02:28;;;;;;;11.83;10.73;;;18.10;99.90;;;;;;5030607;28;20490;-56
2023/08/18 07:04:58;;;;;;;12.13;11.00;;;18.10;99.90;;;;;;5026811;28;20497;-57
2023/08/18 07:07:26;;;;;;;12.10;10.90;;;18.20;99.90;;;;;;5041162;28;20541;-57
2023/08/18 07:09:54;;;;;;;12.50;11.30;;;18.20;99.90;;;;;;5044157;28;20647;-57
2023/08/18 07:12:22;;;;;;;11.83;10.67;;;18.20;99.90;;;;;;5048388;28;20469;-58
2023/08/18 07:14:50;;;;;;;10.60;9.67;;;18.20;99.90;;;;;;5046163;28;20482;-57
2023/08/18 07:17:18;;;;;;;12.57;11.40;;;18.20;99.90;;;;;;5044877;28;20462;-57
2023/08/18 07:19:46;;;;;;;12.10;11.00;;;18.30;99.90;;;;;;5044185;28;20474;-57
2023/08/18 07:22:15;;;;;;;11.67;10.67;;;18.30;99.90;;;;;;5041656;28;20534;-57
2023/08/18 07:24:43;;;;;;;14.93;11.90;;;18.30;99.90;;;;;;5044608;28;20622;-57
2023/08/18 07:27:11;;;;;;;12.60;11.50;;;18.30;99.90;;;;;;5050566;28;20497;-56
2023/08/18 07:29:39;;;;;;;11.90;10.80;;;18.30;99.90;;;;;;5048613;28;20497;-57
2023/08/18 07:32:07;;;;;;;12.10;10.90;;;18.40;99.90;;;;;;5047810;28;20613;-58
2023/08/18 07:34:36;;;;;;;12.77;11.63;;;18.40;99.90;;;;;;5048365;28;20505;-58
2023/08/18 07:37:05;;;;;;;13.10;11.80;;;18.40;99.90;;;;;;5048307;28;20469;-57
2023/08/18 07:39:35;;;;;;;13.53;12.10;;;18.50;99.90;;;;;;5045197;28;20476;-57
2023/08/18 07:42:03;;;;;;;13.20;12.00;;;18.50;99.90;;;;;;5035966;28;20482;-58
2023/08/18 07:44:31;;;;;;;14.40;10.80;;;18.50;99.90;;;;;;5048820;28;21583;-57
2023/08/18 07:46:59;;;;;;;13.60;11.13;;;18.60;99.90;;;;;;5045594;28;20572;-58
2023/08/18 07:49:27;;;;;;;11.63;10.43;;;18.60;99.90;;;;;;5035981;28;20479;-58
2023/08/18 07:51:56;;;;;;;12.70;11.50;;;18.60;99.90;;;;;;5036038;28;20962;-57
2023/08/18 07:54:24;;;;;;;13.30;12.00;;;18.70;99.90;;;;;;5046129;28;20982;-56
2023/08/18 07:56:54;;;;;;;13.20;12.00;;;18.70;99.90;;;;;;5049603;28;20483;-57
2023/08/18 07:59:22;;;;;;;12.97;11.97;;;18.70;99.90;;;;;;5047527;28;20966;-57
2023/08/18 08:01:50;;;;;;;14.30;12.87;;;18.80;99.90;;;;;;5045841;28;20462;-57
2023/08/18 08:04:18;;;;;;;12.77;11.67;;;18.80;99.90;;;;;;5042181;28;20580;-58
2023/08/18 08:06:46;;;;;;;14.40;12.57;;;18.80;99.90;;;;;;5049662;28;20493;-58
2023/08/18 08:09:15;;;;;;;13.80;12.60;;;18.90;99.90;;;;;;5048990;28;20478;-58
2023/08/18 08:11:43;;;;;;;14.10;13.00;;;18.90;99.90;;;;;;5036103;28;20646;-57
2023/08/18 08:14:12;;;;;;;13.00;11.70;;;18.90;99.90;;;;;;5046035;28;20583;-58
2023/08/18 08:16:40;;;;;;;14.03;12.40;;;19.00;99.90;;;;;;5042822;28;20489;-57
2023/08/18 08:19:10;;;;;;;13.07;11.97;;;19.00;99.90;;;;;;5051297;28;20570;-56
2023/08/18 08:21:39;;;;;;;13.03;11.93;;;19.00;99.90;;;;;;5052587;28;20548;-57
2023/08/18 08:24:08;;;;;;;13.40;12.10;;;19.00;99.90;;;;;;5045099;28;20482;-58
2023/08/18 08:26:36;;;;;;;13.80;12.40;;;19.00;99.90;;;;;;5050282;28;20585;-59
2023/08/18 08:29:04;;;;;;;13.03;11.90;;;19.00;99.90;;;;;;5054318;28;20560;-59
2023/08/18 08:31:34;;;;;;;13.17;11.87;;;19.10;99.90;;;;;;5049881;28;20493;-58
2023/08/18 08:34:02;;;;;;;13.03;11.93;;;19.10;99.90;;;;;;5056959;28;20623;-58
2023/08/18 08:36:32;;;;;;;13.27;12.17;;;19.20;99.90;;;;;;5046238;28;20495;-57
2023/08/18 08:39:01;;;;;;;13.53;12.50;;;19.20;99.90;;;;;;5042597;28;20849;-56
2023/08/18 08:41:29;;;;;;;13.30;12.20;;;19.20;99.90;;;;;;5049244;28;20564;-57
2023/08/18 08:43:57;;;;;;;13.63;12.40;;;19.30;99.90;;;;;;5039784;28;21254;-57
2023/08/18 08:46:25;;;;;;;13.27;12.23;;;19.30;99.90;;;;;;5040835;28;20485;-58
2023/08/18 08:48:55;;;;;;;13.10;12.10;;;19.30;99.90;;;;;;5043254;28;20466;-57
2023/08/18 08:51:28;;;;;;;14.70;13.40;;;19.40;99.90;;;;;;5046943;28;20472;-57
2023/08/18 08:54:01;;;;;;;13.10;12.10;;;19.40;99.90;;;;;;5047178;28;20485;-58
2023/08/18 08:56:33;;;;;;;13.60;12.43;;;19.50;99.90;;;;;;5046037;28;20579;-58
2023/08/18 08:59:01;;;;;;;13.03;11.90;;;19.50;99.90;;;;;;5049096;28;20477;-57
2023/08/18 09:01:29;;;;;;;13.67;12.67;;;19.50;99.90;;;;;;5055101;28;21248;-58
2023/08/18 09:03:59;;;;;;;13.87;12.53;;;19.60;99.90;;;;;;5045048;28;20496;-57
2023/08/18 09:06:27;;;;;;;12.57;11.47;;;19.70;99.90;;;;;;5045996;28;20489;-58
2023/08/18 09:08:57;;;;;;;13.17;12.10;;;19.70;99.90;;;;;;5045732;28;21075;-58
2023/08/18 09:11:40;;;;;;;12.47;11.47;;;19.80;99.90;;;;;;5043358;28;20467;-57
2023/08/18 09:14:08;;;;;;;13.97;12.57;;;19.80;99.90;;;;;;5046158;28;20585;-57
2023/08/18 09:16:36;;;;;;;12.27;11.00;;;19.90;99.90;;;;;;5043698;28;20490;-57
2023/08/18 09:19:06;;;;;;;13.10;11.80;;;19.90;99.90;;;;;;5042667;28;20569;-56
2023/08/18 09:21:34;;;;;;;13.03;12.00;;;20.00;99.90;;;;;;5052068;28;20539;-58
2023/08/18 09:24:02;;;;;;;13.00;11.77;;;20.00;99.90;;;;;;5045405;28;21025;-58
2023/08/18 09:26:32;;;;;;;13.07;11.83;;;20.00;99.90;;;;;;5042300;28;20859;-57
2023/08/18 09:29:00;;;;;;;12.90;11.70;;;20.10;99.90;;;;;;5047134;28;20469;-57
2023/08/18 09:31:29;;;;;;;13.00;11.80;;;20.20;99.90;;;;;;5047593;28;20548;-57
2023/08/18 09:33:58;;;;;;;12.57;11.57;;;20.20;99.90;;;;;;5051257;28;20576;-58
2023/08/18 09:36:27;;;;;;;13.60;12.30;;;20.30;99.90;;;;;;5048965;28;20489;-58
2023/08/18 09:38:55;;;;;;;13.37;12.27;;;20.40;99.90;;;;;;5044198;28;20466;-57
2023/08/18 09:41:24;;;;;;;13.90;12.70;;;20.50;99.90;;;;;;5052484;28;20478;-55
2023/08/18 09:43:53;;;;;;;14.37;13.03;;;20.50;99.90;;;;;;5051809;28;20497;-54
2023/08/18 09:46:23;;;;;;;13.50;12.30;;;20.60;99.90;;;;;;5047067;28;20982;-55
2023/08/18 09:48:52;;;;;;;12.43;11.23;;;20.60;99.90;;;;;;5044328;28;20473;-56
2023/08/18 09:51:22;;;;;;;12.60;11.43;;;20.70;99.90;;;;;;5050926;28;20476;-56
2023/08/18 09:53:58;;;;;;;12.73;11.63;;;20.80;99.90;;;;;;5045450;28;20495;-56
2023/08/18 09:56:31;;;;;;;11.40;10.57;;;20.80;99.90;;;;;;5049869;28;20481;-55
2023/08/18 09:59:09;;;;;;;14.00;12.80;;;20.90;99.90;;;;;;5049394;28;20466;-55
2023/08/18 10:01:38;;;;;;;12.40;11.30;;;21.00;99.90;;;;;;5047192;28;21308;-56
2023/08/18 10:04:08;;;;;;;12.27;11.13;;;21.10;99.90;;;;;;5044041;28;20965;-56
2023/08/18 10:06:39;;;;;;;11.33;10.43;;;21.10;99.90;;;;;;5050131;28;20481;-55
2023/08/18 10:09:09;;;;;;;12.17;11.17;;;21.20;99.90;;;;;;5051477;28;20469;-54
2023/08/18 10:11:38;;;;;;;11.80;10.87;;;21.30;99.90;;;;;;5033169;28;20552;-56
2023/08/18 10:14:22;;;;;;;12.07;11.10;;;21.40;99.90;;;;;;5046324;28;20497;-55
2023/08/18 10:16:52;;;;;;;12.13;11.00;;;21.50;99.90;;;;;;5039647;28;20493;-56
2023/08/18 10:19:51;;;;;;;11.97;11.00;;;21.70;99.90;;;;;;5043806;28;20477;-55
2023/08/18 10:22:20;;;;;;;12.10;11.20;;;21.70;99.90;;;;;;5046398;28;20887;-56
2023/08/18 10:24:53;;;;;;;12.17;11.17;;;21.70;99.90;;;;;;5043112;28;20497;-57
2023/08/18 10:27:37;;;;;;;11.43;10.53;;;21.80;99.90;;;;;;5035221;28;20651;-56
2023/08/18 10:30:24;;;;;;;12.23;11.33;;;21.90;99.90;;;;;;5048069;28;20981;-59
2023/08/18 10:32:54;;;;;;;12.00;11.00;;;22.00;99.90;;;;;;5043997;28;20855;-56
2023/08/18 10:35:23;;;;;;;11.90;10.90;;;22.10;99.90;;;;;;5046636;28;20542;-57
2023/08/18 10:37:52;;;;;;;11.77;10.63;;;22.10;99.90;;;;;;5047272;28;20820;-56
2023/08/18 10:40:26;;;;;;;11.97;11.03;;;22.20;99.90;;;;;;5040976;28;20473;-55
2023/08/18 10:42:59;;;;;;;10.87;10.00;;;22.30;99.90;;;;;;5036437;28;21199;-60
2023/08/18 10:45:28;;;;;;;11.90;10.90;;;22.30;99.90;;;;;;5049131;28;20882;-60
2023/08/18 10:47:58;;;;;;;12.10;11.00;;;22.40;99.90;;;;;;5043949;28;20495;-60
2023/08/18 10:50:31;;;;;;;11.07;10.20;;;22.50;99.90;;;;;;5045361;28;20559;-61
2023/08/18 10:53:01;;;;;;;11.40;10.50;;;22.70;99.90;;;;;;5042815;28;20517;-60
2023/08/18 10:55:31;;;;;;;10.93;10.17;;;22.70;99.90;;;;;;5046084;28;20504;-60
2023/08/18 10:57:59;;;;;;;11.10;10.20;;;22.80;99.90;;;;;;5043466;28;21013;-59
2023/08/18 11:00:32;;;;;;;12.07;10.90;;;22.80;99.90;;;;;;5047764;28;20469;-56
2023/08/18 11:03:00;;;;;;;11.83;10.90;;;22.80;99.90;;;;;;5045580;28;20512;-56
2023/08/18 11:05:31;;;;;;;11.20;10.30;;;22.90;99.90;;;;;;5044983;28;21036;-57
2023/08/18 11:08:00;;;;;;;10.73;9.83;;;23.00;99.90;;;;;;5043891;28;20551;-57
2023/08/18 11:10:29;;;;;;;11.50;10.70;;;23.10;99.90;;;;;;5047135;28;20561;-56
2023/08/18 11:12:58;;;;;;;10.30;9.60;;;23.20;99.90;;;;;;5046087;28;20493;-56
2023/08/18 11:15:27;;;;;;;10.93;10.03;;;23.30;99.90;;;;;;5044650;28;21072;-56
2023/08/18 11:17:55;;;;;;;11.10;10.10;;;23.40;99.90;;;;;;5045879;28;21027;-56
2023/08/18 11:20:24;;;;;;;12.07;11.07;;;23.40;99.90;;;;;;5047345;28;20472;-55
2023/08/18 11:22:52;;;;;;;11.77;10.67;;;23.50;99.90;;;;;;5046387;28;20617;-56
2023/08/18 11:25:22;;;;;;;11.37;10.37;;;23.60;99.90;;;;;;5043527;28;20490;-56
2023/08/18 11:27:53;;;;;;;10.40;9.70;;;23.70;99.90;;;;;;5050500;28;20477;-56
2023/08/18 11:30:22;;;;;;;11.60;10.50;;;23.70;99.90;;;;;;5045660;28;20485;-56
2023/08/18 11:32:53;;;;;;;10.60;9.80;;;23.80;99.90;;;;;;5052805;28;20615;-56
2023/08/18 11:35:22;;;;;;;10.47;9.67;;;23.90;99.90;;;;;;5052580;28;20511;-57
2023/08/18 11:37:53;;;;;;;10.37;9.67;;;24.00;99.90;;;;;;5052701;28;20942;-60
2023/08/18 11:40:23;;;;;;;11.60;10.73;;;24.10;99.90;;;;;;5043361;28;20485;-61
2023/08/18 11:42:54;;;;;;;10.53;9.80;;;24.20;99.90;;;;;;5047302;28;20496;-60
2023/08/18 11:45:24;;;;;;;11.30;10.27;;;24.40;99.90;;;;;;5046599;28;20906;-61
2023/08/18 11:47:58;;;;;;;10.90;10.03;;;24.50;99.90;;;;;;5048850;28;20476;-60
2023/08/18 11:50:34;;;;;;;11.60;10.70;;;24.70;99.90;;;;;;5052985;28;20461;-60
2023/08/18 11:53:04;;;;;;;10.17;9.37;;;24.80;99.90;;;;;;5050869;28;21155;-60
2023/08/18 11:55:34;;;;;;;9.93;9.13;;;24.90;99.90;;;;;;5048033;27;20481;-60
2023/08/18 11:58:10;;;;;;;9.70;9.10;;;25.00;99.90;;;;;;5047471;28;20493;-60
2023/08/18 12:00:39;;;;;;;9.93;9.23;;;25.10;99.90;;;;;;5044836;28;20608;-62
2023/08/18 12:03:08;;;;;;;10.20;9.50;;;25.30;99.90;;;;;;5044318;28;20493;-60
2023/08/18 12:05:39;;;;;;;9.90;9.20;;;25.50;99.90;;;;;;5050606;28;20485;-60
2023/08/18 12:08:10;;;;;;;9.50;8.90;;;25.60;99.90;;;;;;5053429;28;20560;-59
2023/08/18 12:10:40;;;;;;;9.47;8.87;;;25.80;99.90;;;;;;5052150;28;21026;-61
2023/08/18 12:13:09;;;;;;;9.20;8.70;;;26.00;99.90;;;;;;5046452;28;20494;-60
2023/08/18 12:15:37;;;;;;;10.10;9.40;;;26.10;99.90;;;;;;5048633;28;20596;-60
2023/08/18 12:18:06;;;;;;;9.50;8.77;;;26.20;99.90;;;;;;5051662;28;20521;-59
2023/08/18 12:20:35;;;;;;;9.50;8.80;;;26.30;99.90;;;;;;5050416;28;21005;-60
2023/08/18 12:23:03;;;;;;;8.77;8.17;;;26.40;99.90;;;;;;5052595;28;20502;-60
2023/08/18 12:25:32;;;;;;;8.47;7.87;;;26.40;99.90;;;;;;5048332;28;20572;-58
2023/08/18 12:28:00;;;;;;;8.97;8.43;;;26.50;99.90;;;;;;5049048;28;20476;-60
2023/08/18 12:30:29;;;;;;;9.30;8.60;;;26.60;99.90;;;;;;5046869;28;20560;-60
2023/08/18 12:32:57;;;;;;;9.43;8.83;;;26.80;99.90;;;;;;5051653;28;20489;-59
2023/08/18 12:35:26;;;;;;;10.40;9.60;;;26.90;99.90;;;;;;5050863;28;20602;-59
2023/08/18 12:37:54;;;;;;;8.93;8.23;;;27.00;99.90;;;;;;5048702;28;20497;-60
2023/08/18 12:40:22;;;;;;;9.30;8.80;;;27.10;99.90;;;;;;5042779;28;20478;-57
2023/08/18 12:42:50;;;;;;;8.00;7.50;;;27.20;99.90;;;;;;5039961;28;20508;-57
2023/08/18 12:45:19;;;;;;;8.00;7.50;;;27.40;99.90;;;;;;5044500;28;20497;-58
2023/08/18 12:47:48;;;;;;;8.07;7.57;;;27.60;99.90;;;;;;5051451;28;20611;-58